Time;durP1;ratioP1;P1;durP2;ratioP2;P2;SDS_P1;SDS_P2;PMS_P1;PMS_P2;Temp;Humidity;BMP_temperature;BMP_pressure;BME280_temperature;BME280_humidity;BME280_pressure;Samples;Min_cycle;Max_cycle;Signal;HPM_P1;HPM_P2
2023/12/17 00:17:49;;;;;;;21.67;5.90;;;5.70;99.90;;;;;;1931739;73;25399;-91
2023/12/17 00:50:48;;;;;;;11.37;1.70;;;5.60;99.90;;;;;;1877442;76;27190;-90
2023/12/17 01:32:02;;;;;;;12.73;4.53;;;4.90;99.90;;;;;;1925037;73;27240;-92
2023/12/17 01:37:44;;;;;;;31.10;9.60;;;4.50;99.90;;;;;;1962391;72;27113;-92
2023/12/17 01:43:25;;;;;;;13.57;4.83;;;4.60;99.90;;;;;;1942079;72;26882;-92
2023/12/17 02:02:35;;;;;;;11.77;1.87;;;4.60;99.90;;;;;;1927552;73;26394;-91
2023/12/17 02:25:51;;;;;;;12.63;2.67;;;4.20;99.90;;;;;;1986332;71;27570;-92
2023/12/17 02:31:38;;;;;;;11.23;3.27;;;3.90;99.90;;;;;;1944257;72;26730;-90
2023/12/17 02:52:26;;;;;;;12.97;4.40;;;3.90;99.90;;;;;;1944644;72;27436;-90
2023/12/17 02:55:15;;;;;;;11.60;4.63;;;3.80;99.90;;;;;;1921607;73;25316;-90
2023/12/17 02:58:06;;;;;;;7.87;3.63;;;3.70;99.90;;;;;;1940797;73;25247;-90
2023/12/17 03:00:54;;;;;;;7.07;3.10;;;3.60;99.90;;;;;;1903321;73;25310;-90
2023/12/17 03:03:43;;;;;;;3.87;2.60;;;3.70;99.90;;;;;;1903081;75;25204;-90
2023/12/17 03:06:32;;;;;;;8.47;2.23;;;3.70;99.90;;;;;;1894636;75;25296;-91
2023/12/17 03:09:21;;;;;;;5.50;1.97;;;3.80;99.90;;;;;;1889715;75;25177;-90
2023/12/17 03:12:10;;;;;;;8.10;2.00;;;3.80;99.90;;;;;;1879926;75;25257;-90
2023/12/17 03:14:59;;;;;;;7.50;2.00;;;3.80;99.90;;;;;;1889686;75;25280;-90
2023/12/17 03:17:48;;;;;;;4.50;1.90;;;3.90;99.90;;;;;;1881969;75;25207;-90
2023/12/17 03:20:37;;;;;;;9.40;2.33;;;3.90;99.90;;;;;;1888490;75;25251;-90
2023/12/17 03:44:09;;;;;;;8.40;2.37;;;3.80;99.90;;;;;;1922947;72;27791;-90
2023/12/17 03:49:44;;;;;;;10.93;1.90;;;3.70;99.90;;;;;;1941113;72;27064;-90
2023/12/17 04:12:09;;;;;;;9.13;3.20;;;3.60;99.90;;;;;;1840558;76;27668;-92
2023/12/17 04:44:27;;;;;;;3.60;0.90;;;3.10;99.90;;;;;;1997752;71;27015;-88
2023/12/17 04:47:16;;;;;;;2.17;1.13;;;3.00;99.90;;;;;;1957232;71;25148;-92
2023/12/17 04:50:05;;;;;;;6.37;1.40;;;3.10;99.90;;;;;;1949287;72;25595;-92
2023/12/17 04:57:45;;;;;;;5.20;1.10;;;3.10;99.90;;;;;;1981563;71;27142;-92
2023/12/17 05:00:34;;;;;;;6.03;1.10;;;2.90;99.90;;;;;;2020465;70;25186;-90
2023/12/17 05:03:22;;;;;;;3.50;1.17;;;2.80;99.90;;;;;;2031918;70;25189;-92
2023/12/17 05:06:11;;;;;;;1.57;1.00;;;2.90;99.90;;;;;;2011693;69;25181;-90
2023/12/17 05:09:00;;;;;;;2.40;0.80;;;3.10;99.90;;;;;;2021480;70;25245;-90
2023/12/17 05:11:49;;;;;;;2.37;0.87;;;3.10;99.90;;;;;;2034556;70;25251;-92
2023/12/17 05:14:40;;;;;;;2.23;1.13;;;3.10;99.90;;;;;;2033749;70;25212;-92
2023/12/17 05:17:31;;;;;;;5.20;1.30;;;3.00;99.90;;;;;;2010846;70;25203;-90
2023/12/17 05:23:29;;;;;;;7.53;1.10;;;2.90;99.90;;;;;;2017122;70;26373;-90
2023/12/17 05:26:18;;;;;;;2.37;0.70;;;2.80;99.90;;;;;;1974023;72;25559;-92
2023/12/17 05:29:07;;;;;;;8.60;1.00;;;2.80;99.90;;;;;;2053221;69;25990;-92
2023/12/17 05:31:57;;;;;;;6.90;1.53;;;2.90;99.90;;;;;;2057793;69;25298;-92
2023/12/17 05:37:40;;;;;;;6.67;1.43;;;2.90;99.90;;;;;;1955094;72;27110;-92
2023/12/17 05:40:30;;;;;;;3.40;1.50;;;2.90;99.90;;;;;;1919097;73;25275;-92
2023/12/17 05:43:19;;;;;;;10.90;1.90;;;2.80;99.90;;;;;;1908578;73;25303;-92
2023/12/17 05:46:08;;;;;;;4.20;1.70;;;2.80;99.90;;;;;;1913909;74;25189;-90
2023/12/17 05:48:57;;;;;;;6.77;1.40;;;2.80;99.90;;;;;;1918737;74;25240;-92
2023/12/17 05:51:46;;;;;;;3.37;1.40;;;2.60;99.90;;;;;;1923669;74;25661;-90
2023/12/17 05:54:35;;;;;;;2.60;1.60;;;2.40;99.90;;;;;;1902994;74;25251;-92
2023/12/17 05:57:24;;;;;;;3.40;1.00;;;2.30;99.90;;;;;;1910862;74;25740;-92
2023/12/17 06:16:46;;;;;;;3.67;1.10;;;2.90;99.90;;;;;;1957338;72;27729;-90
2023/12/17 06:19:40;;;;;;;4.40;0.97;;;2.90;99.90;;;;;;1916968;74;25220;-90
2023/12/17 06:22:28;;;;;;;7.80;0.90;;;2.70;99.90;;;;;;1889548;74;25256;-91
2023/12/17 06:25:18;;;;;;;1.23;0.70;;;2.60;99.90;;;;;;1916546;74;25285;-91
2023/12/17 06:28:06;;;;;;;2.40;0.90;;;2.60;99.90;;;;;;1914903;74;25164;-91
2023/12/17 06:30:55;;;;;;;6.57;0.90;;;2.50;99.90;;;;;;1911287;73;25316;-91
2023/12/17 06:33:43;;;;;;;3.37;0.93;;;2.60;99.90;;;;;;1918172;74;25324;-91
2023/12/17 06:36:32;;;;;;;1.40;0.93;;;2.70;99.90;;;;;;1915654;74;25205;-91
2023/12/17 06:39:21;;;;;;;5.03;1.17;;;2.70;99.90;;;;;;1908156;74;25262;-91
2023/12/17 06:42:10;;;;;;;7.07;1.00;;;2.80;99.90;;;;;;1901297;74;25240;-91
2023/12/17 06:44:59;;;;;;;3.23;0.90;;;2.90;99.90;;;;;;1872287;76;25793;-91
2023/12/17 06:47:47;;;;;;;5.50;0.87;;;2.90;99.90;;;;;;1876253;76;25181;-91
2023/12/17 06:53:22;;;;;;;1.97;0.87;;;2.70;99.90;;;;;;1949957;72;26995;-90
2023/12/17 06:56:11;;;;;;;4.80;1.10;;;2.70;99.90;;;;;;1917990;73;25652;-92
2023/12/17 06:58:59;;;;;;;2.00;1.00;;;2.80;99.90;;;;;;1925190;73;25193;-92
2023/12/17 07:01:47;;;;;;;4.23;1.43;;;2.90;99.90;;;;;;1943920;73;25227;-91
2023/12/17 07:04:36;;;;;;;7.03;1.13;;;3.10;99.90;;;;;;1924499;73;25757;-91
2023/12/17 07:07:25;;;;;;;4.37;1.73;;;3.30;99.90;;;;;;1916101;73;25743;-91
2023/12/17 07:10:15;;;;;;;4.80;1.40;;;3.30;99.90;;;;;;1926588;73;25882;-91
2023/12/17 07:13:05;;;;;;;3.27;1.27;;;3.50;99.90;;;;;;1935950;73;25559;-91
2023/12/17 07:15:54;;;;;;;5.83;1.83;;;3.60;99.90;;;;;;1940806;73;25832;-91
2023/12/17 07:18:43;;;;;;;5.13;1.40;;;3.80;99.90;;;;;;1932754;73;25236;-91
2023/12/17 07:21:32;;;;;;;6.43;1.50;;;3.80;99.90;;;;;;1935570;73;25166;-91
2023/12/17 07:24:20;;;;;;;5.90;1.30;;;3.90;99.90;;;;;;1938438;73;25208;-91
2023/12/17 07:27:18;;;;;;;5.93;1.83;;;3.90;99.90;;;;;;1926431;73;25218;-91
2023/12/17 07:47:57;;;;;;;15.70;2.50;;;3.70;99.90;;;;;;2030857;70;26679;-90
2023/12/17 07:53:31;;;;;;;11.03;1.87;;;3.90;99.90;;;;;;1930777;72;27697;-90
2023/12/17 07:56:20;;;;;;;11.40;2.03;;;4.00;99.90;;;;;;1914515;74;25237;-92
2023/12/17 07:59:09;;;;;;;9.47;1.70;;;4.00;99.90;;;;;;1887123;75;25306;-90
2023/12/17 08:01:57;;;;;;;12.17;1.90;;;4.10;99.90;;;;;;1883729;75;25151;-90
2023/12/17 08:04:48;;;;;;;7.70;1.90;;;4.10;99.90;;;;;;1889981;75;25266;-92
2023/12/17 08:07:37;;;;;;;14.37;2.00;;;4.10;99.90;;;;;;1894097;75;25271;-92
2023/12/17 08:10:26;;;;;;;21.57;2.50;;;4.10;99.90;;;;;;1901302;75;25594;-92
2023/12/17 08:13:16;;;;;;;17.97;3.00;;;4.20;99.90;;;;;;1893646;75;25241;-92
2023/12/17 08:16:04;;;;;;;13.33;2.07;;;4.20;99.90;;;;;;1890587;75;25739;-92
2023/12/17 08:18:53;;;;;;;14.87;1.90;;;4.20;99.90;;;;;;1903634;75;25170;-92
2023/12/17 08:21:44;;;;;;;10.80;1.70;;;4.20;99.90;;;;;;1894774;75;25253;-92
2023/12/17 08:24:33;;;;;;;14.83;1.90;;;4.20;99.90;;;;;;1888731;75;25218;-93
2023/12/17 08:27:23;;;;;;;21.23;2.40;;;4.20;99.90;;;;;;1894710;75;25263;-91
2023/12/17 08:54:20;;;;;;;20.20;2.77;;;4.30;99.90;;;;;;1884576;75;27206;-92
2023/12/17 09:25:09;;;;;;;32.90;3.40;;;4.70;99.90;;;;;;1921040;74;27039;-92
2023/12/17 09:30:51;;;;;;;49.90;4.07;;;4.70;99.90;;;;;;1953546;72;27034;-93
2023/12/17 09:33:41;;;;;;;43.40;3.23;;;4.70;99.90;;;;;;1920389;73;25742;-92
2023/12/17 09:49:58;;;;;;;24.27;2.67;;;4.70;99.90;;;;;;1867336;75;27062;-92
2023/12/17 10:07:43;;;;;;;16.40;2.70;;;4.70;99.90;;;;;;1967858;72;26344;-93
2023/12/17 10:13:37;;;;;;;11.40;1.60;;;4.80;99.90;;;;;;1947684;72;29536;-93
2023/12/17 10:16:27;;;;;;;11.27;1.57;;;4.80;99.90;;;;;;1911342;73;25674;-91
2023/12/17 13:05:02;;;;;;;22.90;3.60;;;5.80;99.90;;;;;;2027401;69;27013;-91
2023/12/17 13:07:51;;;;;;;27.50;3.27;;;5.70;99.90;;;;;;2036517;70;25203;-93
2023/12/17 13:10:41;;;;;;;21.80;2.93;;;5.80;99.90;;;;;;1965872;72;25219;-93
2023/12/17 13:13:30;;;;;;;24.03;3.53;;;5.90;99.90;;;;;;1988183;71;25670;-92
2023/12/17 13:16:21;;;;;;;20.97;3.13;;;5.90;99.90;;;;;;1995594;71;25232;-92
2023/12/17 13:19:12;;;;;;;21.10;2.80;;;5.90;99.90;;;;;;1987512;72;25693;-92
2023/12/17 13:22:02;;;;;;;17.80;3.13;;;6.00;99.90;;;;;;1986681;72;25205;-92
2023/12/17 13:24:51;;;;;;;25.50;3.70;;;6.00;99.90;;;;;;1976524;71;25265;-92
2023/12/17 13:30:32;;;;;;;25.40;3.30;;;5.90;99.90;;;;;;1949661;72;27640;-92
2023/12/17 13:33:22;;;;;;;20.83;4.33;;;5.90;99.90;;;;;;1944631;73;25731;-91
2023/12/17 13:39:07;;;;;;;20.30;3.77;;;6.00;99.90;;;;;;1982350;71;27042;-90
2023/12/17 13:41:57;;;;;;;24.53;3.87;;;6.10;99.90;;;;;;1941386;73;25615;-90
2023/12/17 13:44:48;;;;;;;27.13;3.77;;;6.10;99.90;;;;;;1913563;73;25212;-90
2023/12/17 13:47:37;;;;;;;30.60;3.60;;;6.10;99.90;;;;;;1896957;75;25210;-90
2023/12/17 13:50:25;;;;;;;22.00;3.73;;;6.10;99.90;;;;;;1909325;73;25664;-90
2023/12/17 13:53:14;;;;;;;37.57;4.47;;;6.20;99.90;;;;;;1928765;73;25786;-93
2023/12/17 13:56:04;;;;;;;26.70;3.77;;;6.20;99.90;;;;;;1915356;75;25200;-90
2023/12/17 13:58:53;;;;;;;19.77;2.93;;;6.20;99.90;;;;;;1909432;73;25343;-90
2023/12/17 14:05:29;;;;;;;22.13;4.00;;;6.10;99.90;;;;;;1892847;73;25241;-90
2023/12/17 14:08:17;;;;;;;31.93;3.97;;;6.10;99.90;;;;;;1904625;75;25730;-91
2023/12/17 14:11:07;;;;;;;24.07;3.53;;;6.10;99.90;;;;;;1882109;75;25220;-91
2023/12/17 14:13:56;;;;;;;39.93;4.23;;;6.10;99.90;;;;;;1908418;73;25222;-91
2023/12/17 14:16:46;;;;;;;33.20;4.30;;;6.20;99.90;;;;;;1889532;75;26461;-91
2023/12/17 14:19:35;;;;;;;28.27;4.50;;;6.20;99.90;;;;;;1901205;75;25220;-92
2023/12/17 14:22:24;;;;;;;40.87;4.87;;;6.20;99.90;;;;;;1903584;75;25271;-91
2023/12/17 14:25:14;;;;;;;33.87;4.63;;;6.20;99.90;;;;;;1903873;75;25313;-91
2023/12/17 14:28:03;;;;;;;31.90;4.37;;;6.10;99.90;;;;;;1923499;73;25256;-91
2023/12/17 14:30:57;;;;;;;41.73;4.47;;;6.10;99.90;;;;;;1892249;73;25955;-91
2023/12/17 14:33:46;;;;;;;27.37;3.97;;;6.00;99.90;;;;;;1884637;75;25321;-91
2023/12/17 15:10:38;;;;;;;37.83;3.83;;;5.70;99.90;;;;;;1976987;71;27116;-91
2023/12/17 15:13:27;;;;;;;33.37;3.60;;;5.80;99.90;;;;;;1885972;75;25261;-91
2023/12/17 15:16:16;;;;;;;25.27;3.17;;;5.80;99.90;;;;;;1909157;73;25390;-91
2023/12/17 15:19:06;;;;;;;25.90;3.77;;;5.70;99.90;;;;;;1916738;72;25275;-91
2023/12/17 15:21:54;;;;;;;33.03;4.10;;;5.80;99.90;;;;;;1887312;74;25190;-91
2023/12/17 16:17:19;;;;;;;19.43;2.77;;;5.90;99.90;;;;;;1914490;73;27038;-92
2023/12/17 16:39:37;;;;;;;17.60;2.60;;;5.70;99.90;;;;;;1959293;72;27133;-90
2023/12/17 16:42:26;;;;;;;18.40;2.50;;;5.60;99.90;;;;;;1877247;76;25353;-90
2023/12/17 16:45:14;;;;;;;28.73;2.47;;;5.60;99.90;;;;;;1865213;76;25333;-90
2023/12/17 16:48:05;;;;;;;26.13;3.23;;;5.40;99.90;;;;;;1873520;76;25251;-90
2023/12/17 16:50:55;;;;;;;24.60;3.20;;;5.40;99.90;;;;;;1889618;75;25304;-92
2023/12/17 16:53:45;;;;;;;21.33;2.87;;;5.40;99.90;;;;;;1911762;73;25214;-92
2023/12/17 16:56:34;;;;;;;16.20;2.73;;;5.40;99.90;;;;;;1924332;73;25364;-92
2023/12/17 16:59:24;;;;;;;25.43;2.87;;;5.40;99.90;;;;;;1903622;73;25227;-92
2023/12/17 17:02:14;;;;;;;19.87;2.90;;;5.40;99.90;;;;;;1937885;73;25649;-90
2023/12/17 17:05:07;;;;;;;25.93;2.27;;;5.50;99.90;;;;;;1923019;73;25164;-92
2023/12/17 17:07:56;;;;;;;18.60;2.80;;;5.40;99.90;;;;;;1926803;73;25296;-92
2023/12/17 17:10:47;;;;;;;19.53;3.20;;;5.50;99.90;;;;;;1939088;73;25212;-92
2023/12/17 17:13:37;;;;;;;15.53;2.43;;;5.50;99.90;;;;;;1903627;73;26699;-91
2023/12/17 17:46:50;;;;;;;17.63;2.80;;;5.50;99.90;;;;;;1959788;72;30024;-92
2023/12/17 17:55:32;;;;;;;13.07;2.37;;;5.40;99.90;;;;;;1978724;71;26478;-91
2023/12/17 17:58:20;;;;;;;15.50;2.50;;;5.30;99.90;;;;;;1987604;71;25735;-91
2023/12/17 18:01:09;;;;;;;18.37;2.70;;;5.20;99.90;;;;;;1986700;71;25601;-90
2023/12/17 18:03:58;;;;;;;19.67;2.83;;;5.20;99.90;;;;;;2000948;71;25259;-91
2023/12/17 18:06:48;;;;;;;20.67;2.87;;;5.20;99.90;;;;;;2018848;70;25287;-90
2023/12/17 18:09:37;;;;;;;23.23;2.40;;;5.20;99.90;;;;;;1984535;71;25265;-90
2023/12/17 18:12:26;;;;;;;15.97;2.43;;;5.30;99.90;;;;;;2019800;70;25167;-90
2023/12/17 18:15:16;;;;;;;17.70;2.37;;;5.30;99.90;;;;;;2018102;70;25182;-91
2023/12/17 18:18:06;;;;;;;19.60;3.30;;;5.20;99.90;;;;;;2007654;71;25691;-90
2023/12/17 18:20:56;;;;;;;23.17;2.97;;;5.30;99.90;;;;;;1984623;71;25276;-90
2023/12/17 18:23:55;;;;;;;20.23;3.20;;;5.30;99.90;;;;;;2011201;71;25200;-90
2023/12/17 18:26:44;;;;;;;22.83;2.90;;;5.40;99.90;;;;;;1999780;71;25190;-90
2023/12/17 18:42:10;;;;;;;15.23;2.70;;;5.50;99.90;;;;;;1923799;73;27631;-89
2023/12/17 18:44:59;;;;;;;27.00;3.23;;;5.70;99.90;;;;;;1919226;74;25337;-91
2023/12/17 18:47:48;;;;;;;23.07;3.47;;;5.70;99.90;;;;;;1914754;74;25284;-91
2023/12/17 18:53:30;;;;;;;21.43;5.00;;;5.80;99.90;;;;;;1944620;71;27005;-89
2023/12/17 18:56:18;;;;;;;17.80;4.40;;;5.90;99.90;;;;;;1932789;73;25205;-91
2023/12/17 18:59:08;;;;;;;14.00;4.10;;;5.90;99.90;;;;;;1942484;72;25229;-91
2023/12/17 19:01:56;;;;;;;23.20;3.53;;;6.00;99.90;;;;;;1920994;73;25280;-91
2023/12/17 19:04:45;;;;;;;19.80;2.97;;;6.10;99.90;;;;;;1931326;72;26551;-91
2023/12/17 19:07:34;;;;;;;14.93;4.43;;;6.00;99.90;;;;;;1920077;73;25699;-91
2023/12/17 19:10:24;;;;;;;16.37;4.30;;;6.00;99.90;;;;;;1928052;72;25358;-91
2023/12/17 19:13:13;;;;;;;23.57;5.67;;;6.00;99.90;;;;;;1936696;73;25282;-89
2023/12/17 19:18:52;;;;;;;56.13;16.10;;;6.00;99.90;;;;;;1953893;72;27550;-89
2023/12/17 19:21:40;;;;;;;54.60;16.83;;;6.00;99.90;;;;;;1932062;73;25315;-89
2023/12/17 19:24:29;;;;;;;67.87;18.40;;;6.10;99.90;;;;;;1932017;73;25207;-91
2023/12/17 19:27:19;;;;;;;72.10;15.97;;;6.00;99.90;;;;;;1916954;73;25780;-91
2023/12/17 19:30:09;;;;;;;36.10;8.60;;;6.00;99.90;;;;;;1924864;73;25658;-92
2023/12/17 19:33:01;;;;;;;31.60;6.63;;;6.00;99.90;;;;;;1922273;73;25300;-90
2023/12/17 19:35:48;;;;;;;25.33;4.30;;;5.90;99.90;;;;;;1917678;73;25627;-91
2023/12/17 19:38:40;;;;;;;18.10;4.50;;;5.80;99.90;;;;;;1919835;73;25328;-89
2023/12/17 19:41:27;;;;;;;32.07;5.13;;;5.70;99.90;;;;;;1926800;73;25233;-91
2023/12/17 19:44:16;;;;;;;29.47;5.83;;;5.70;99.90;;;;;;1893899;75;25258;-91
2023/12/17 19:51:26;;;;;;;54.67;10.70;;;5.70;99.90;;;;;;1983240;71;27215;-90
2023/12/17 19:56:57;;;;;;;67.93;15.63;;;5.70;99.90;;;;;;1971449;71;27048;-89
2023/12/17 19:59:46;;;;;;;81.63;18.57;;;5.70;99.90;;;;;;1891012;74;25205;-91
2023/12/17 20:02:34;;;;;;;80.13;20.77;;;5.70;99.90;;;;;;1903400;74;25684;-91
2023/12/17 20:05:22;;;;;;;60.07;16.90;;;5.70;99.90;;;;;;1914472;74;25159;-91
2023/12/17 20:11:05;;;;;;;24.60;8.27;;;5.80;99.90;;;;;;1946099;72;27917;-91
2023/12/17 20:13:54;;;;;;;19.63;4.27;;;5.90;99.90;;;;;;1925279;73;25639;-91
2023/12/17 20:19:29;;;;;;;16.93;4.73;;;6.00;99.90;;;;;;1900865;74;27089;-89
2023/12/17 20:25:09;;;;;;;22.37;6.37;;;6.00;99.90;;;;;;1937673;72;26967;-89
2023/12/17 20:27:58;;;;;;;35.00;11.40;;;6.00;99.90;;;;;;1910923;75;25271;-89
2023/12/17 20:30:47;;;;;;;36.80;11.47;;;6.00;99.90;;;;;;1907239;73;25264;-89
2023/12/17 20:33:37;;;;;;;40.40;11.57;;;6.00;99.90;;;;;;1909211;73;25277;-90
2023/12/17 20:36:26;;;;;;;39.43;12.80;;;6.00;99.90;;;;;;1905370;73;25226;-91
2023/12/17 20:42:00;;;;;;;33.00;9.73;;;6.10;99.90;;;;;;1979869;71;27570;-91
2023/12/17 20:44:49;;;;;;;30.20;7.67;;;6.10;99.90;;;;;;1905962;75;25219;-91
2023/12/17 20:50:27;;;;;;;37.83;11.10;;;6.10;99.90;;;;;;1950604;72;28444;-91
2023/12/17 20:53:16;;;;;;;44.23;12.70;;;6.10;99.90;;;;;;1924620;73;25317;-89
2023/12/17 20:56:06;;;;;;;37.77;11.80;;;6.10;99.90;;;;;;1933372;73;25239;-89
2023/12/17 20:58:55;;;;;;;45.63;10.57;;;6.10;99.90;;;;;;1917909;73;25675;-89
2023/12/17 21:01:46;;;;;;;40.07;12.70;;;6.10;99.90;;;;;;1934387;73;25263;-89
2023/12/17 21:07:20;;;;;;;25.77;7.67;;;6.10;99.90;;;;;;1892655;75;27161;-89
2023/12/17 21:10:10;;;;;;;26.57;5.17;;;6.10;99.90;;;;;;1864172;77;25245;-91
2023/12/17 21:12:58;;;;;;;14.77;3.63;;;6.20;99.90;;;;;;1842148;76;25222;-90
2023/12/17 21:18:38;;;;;;;14.33;2.07;;;6.10;99.90;;;;;;1945490;72;27129;-89
2023/12/17 21:21:30;;;;;;;15.47;2.20;;;6.10;99.90;;;;;;1934697;73;25218;-89
2023/12/17 21:24:19;;;;;;;10.23;1.87;;;6.10;99.90;;;;;;1917802;73;25262;-89
2023/12/17 21:27:21;;;;;;;16.57;1.87;;;6.10;99.90;;;;;;1930534;73;25292;-89
2023/12/17 21:33:02;;;;;;;12.13;1.90;;;5.90;99.90;;;;;;1951857;72;26890;-89
2023/12/17 21:35:53;;;;;;;16.20;2.00;;;5.90;99.90;;;;;;1933138;73;25157;-90
2023/12/17 21:38:41;;;;;;;12.63;1.80;;;5.90;99.90;;;;;;1929124;73;25683;-90
2023/12/17 21:41:30;;;;;;;16.50;1.83;;;6.00;99.90;;;;;;1924921;73;25295;-90
2023/12/17 21:44:18;;;;;;;12.80;2.07;;;6.00;99.90;;;;;;1913996;73;25677;-90
2023/12/17 21:47:08;;;;;;;12.10;2.00;;;6.00;99.90;;;;;;1908258;73;25644;-90
2023/12/17 21:49:57;;;;;;;12.33;1.87;;;6.00;99.90;;;;;;1873197;75;25246;-90
2023/12/17 21:52:45;;;;;;;13.67;1.90;;;6.00;99.90;;;;;;1874495;75;25349;-90
2023/12/17 21:55:34;;;;;;;12.53;1.70;;;5.90;99.90;;;;;;1872956;75;25261;-90
2023/12/17 21:58:23;;;;;;;14.60;2.10;;;5.90;99.90;;;;;;1850028;75;25250;-90
2023/12/17 22:01:11;;;;;;;11.40;2.10;;;5.90;99.90;;;;;;1878986;75;25245;-90
2023/12/17 22:04:00;;;;;;;18.73;2.87;;;6.00;99.90;;;;;;1876061;76;25231;-90
2023/12/17 22:06:48;;;;;;;14.10;2.90;;;6.00;99.90;;;;;;1864350;75;25303;-90
2023/12/17 22:09:39;;;;;;;15.73;3.97;;;6.10;99.90;;;;;;1912115;73;25242;-90
2023/12/17 22:12:28;;;;;;;19.53;4.47;;;6.10;99.90;;;;;;1919482;73;25165;-89
2023/12/17 22:15:17;;;;;;;15.60;3.43;;;6.10;99.90;;;;;;1902335;74;25169;-90
2023/12/17 22:20:48;;;;;;;19.87;3.33;;;6.20;99.90;;;;;;1948252;72;26371;-89
2023/12/17 22:26:21;;;;;;;24.30;5.27;;;6.10;99.90;;;;;;1937305;72;27033;-89
2023/12/17 22:29:10;;;;;;;26.40;5.53;;;6.20;99.90;;;;;;1900583;75;25247;-89
2023/12/17 22:37:28;;;;;;;16.00;2.67;;;6.30;99.90;;;;;;1900433;75;27175;-89
2023/12/17 22:40:17;;;;;;;15.97;2.20;;;6.20;99.90;;;;;;1865155;76;25318;-91
2023/12/17 22:43:07;;;;;;;18.00;2.20;;;6.10;99.90;;;;;;1873723;76;25732;-89
2023/12/17 22:45:55;;;;;;;21.17;2.00;;;6.20;99.90;;;;;;1826703;78;25260;-89
2023/12/17 22:48:44;;;;;;;15.83;2.30;;;6.20;99.90;;;;;;1862679;76;25244;-90
2023/12/17 22:51:33;;;;;;;12.13;1.83;;;6.20;99.90;;;;;;1872033;76;25264;-89
2023/12/17 22:54:21;;;;;;;12.93;1.90;;;6.10;99.90;;;;;;1865743;76;25241;-89
2023/12/17 22:57:10;;;;;;;17.07;2.17;;;6.00;99.90;;;;;;1863236;76;25282;-89
2023/12/17 22:59:58;;;;;;;17.50;2.20;;;5.90;99.90;;;;;;1856283;76;25676;-90
2023/12/17 23:02:48;;;;;;;15.43;2.13;;;6.00;99.90;;;;;;1851808;76;25273;-90
2023/12/17 23:05:37;;;;;;;12.73;2.63;;;5.90;99.90;;;;;;1871836;76;25802;-89
2023/12/17 23:08:26;;;;;;;19.40;2.40;;;5.90;99.90;;;;;;1873493;76;25257;-90
2023/12/17 23:41:29;;;;;;;20.00;2.70;;;6.20;99.90;;;;;;1892380;74;26373;-89
2023/12/17 23:44:20;;;;;;;24.30;2.90;;;6.30;99.90;;;;;;1861533;75;25267;-91
2023/12/17 23:49:54;;;;;;;21.23;2.73;;;6.40;99.90;;;;;;1952833;72;27084;-89
2023/12/17 23:52:42;;;;;;;18.87;2.10;;;6.40;99.90;;;;;;1927055;73;25182;-91
2023/12/17 23:55:31;;;;;;;24.77;2.97;;;6.40;99.90;;;;;;1924693;73;25304;-89
2023/12/17 23:58:19;;;;;;;16.17;2.80;;;6.40;99.90;;;;;;1926700;73;25690;-91
